sensor_id;sensor_type;location;lat;lon;timestamp;pressure;altitude;pressure_sealevel;temperature;humidity
71716;BME280;59568;52.128;5.434;2023-05-03T00:01:33;103112.16;;;4.98;73.25
71716;BME280;59568;52.128;5.434;2023-05-03T00:03:59;103113.34;;;4.96;73.50
71716;BME280;59568;52.128;5.434;2023-05-03T00:06:27;103110.13;;;4.94;73.70
71716;BME280;59568;52.128;5.434;2023-05-03T00:08:53;103109.72;;;4.90;73.89
71716;BME280;59568;52.128;5.434;2023-05-03T00:11:20;103110.09;;;4.87;73.94
71716;BME280;59568;52.128;5.434;2023-05-03T00:13:47;103111.28;;;4.85;73.94
71716;BME280;59568;52.128;5.434;2023-05-03T00:16:13;103107.09;;;4.84;73.79
71716;BME280;59568;52.128;5.434;2023-05-03T00:18:40;103116.06;;;4.81;74.05
71716;BME280;59568;52.128;5.434;2023-05-03T00:21:06;103110.44;;;4.77;74.04
71716;BME280;59568;52.128;5.434;2023-05-03T00:23:33;103116.00;;;4.74;74.03
71716;BME280;59568;52.128;5.434;2023-05-03T00:25:59;103110.38;;;4.71;74.10
71716;BME280;59568;52.128;5.434;2023-05-03T00:28:26;103115.56;;;4.71;73.97
71716;BME280;59568;52.128;5.434;2023-05-03T00:30:52;103119.34;;;4.68;74.16
71716;BME280;59568;52.128;5.434;2023-05-03T00:33:20;103116.31;;;4.65;74.46
71716;BME280;59568;52.128;5.434;2023-05-03T00:35:47;103118.28;;;4.63;74.37
71716;BME280;59568;52.128;5.434;2023-05-03T00:38:14;103122.06;;;4.60;74.55
71716;BME280;59568;52.128;5.434;2023-05-03T00:40:40;103114.88;;;4.55;74.44
71716;BME280;59568;52.128;5.434;2023-05-03T00:43:10;103106.69;;;4.52;74.61
71716;BME280;59568;52.128;5.434;2023-05-03T00:45:36;103112.25;;;4.49;74.50
71716;BME280;59568;52.128;5.434;2023-05-03T00:48:03;103109.22;;;4.45;74.57
71716;BME280;59568;52.128;5.434;2023-05-03T00:50:30;103112.97;;;4.43;74.46
71716;BME280;59568;52.128;5.434;2023-05-03T00:52:57;103116.94;;;4.38;74.78
71716;BME280;59568;52.128;5.434;2023-05-03T00:55:23;103112.13;;;4.35;74.99
71716;BME280;59568;52.128;5.434;2023-05-03T00:57:52;103111.34;;;4.35;75.06
71716;BME280;59568;52.128;5.434;2023-05-03T01:00:19;103110.13;;;4.31;75.13
71716;BME280;59568;52.128;5.434;2023-05-03T01:02:46;103111.47;;;4.27;75.61
71716;BME280;59568;52.128;5.434;2023-05-03T01:05:12;103111.66;;;4.25;75.29
71716;BME280;59568;52.128;5.434;2023-05-03T01:08:12;103114.44;;;4.24;75.40
71716;BME280;59568;52.128;5.434;2023-05-03T01:10:50;103118.19;;;4.21;75.29
71716;BME280;59568;52.128;5.434;2023-05-03T01:13:27;103118.56;;;4.18;75.45
71716;BME280;59568;52.128;5.434;2023-05-03T01:16:06;103111.19;;;4.15;75.76
71716;BME280;59568;52.128;5.434;2023-05-03T01:18:38;103107.97;;;4.13;75.43
71716;BME280;59568;52.128;5.434;2023-05-03T01:21:06;103118.69;;;4.10;75.77
71716;BME280;59568;52.128;5.434;2023-05-03T01:23:54;103109.34;;;4.09;76.14
71716;BME280;59568;52.128;5.434;2023-05-03T01:26:23;103113.28;;;4.05;76.28
71716;BME280;59568;52.128;5.434;2023-05-03T01:28:50;103111.03;;;4.02;76.12
71716;BME280;59568;52.128;5.434;2023-05-03T01:31:24;103111.03;;;4.02;76.26
71716;BME280;59568;52.128;5.434;2023-05-03T01:36:29;103109.81;;;3.97;75.68
71716;BME280;59568;52.128;5.434;2023-05-03T01:39:05;103109.38;;;3.94;76.20
71716;BME280;59568;52.128;5.434;2023-05-03T01:41:33;103106.16;;;3.92;76.27
71716;BME280;59568;52.128;5.434;2023-05-03T01:44:02;103104.94;;;3.88;76.24
71716;BME280;59568;52.128;5.434;2023-05-03T01:46:29;103100.56;;;3.88;76.23
71716;BME280;59568;52.128;5.434;2023-05-03T01:48:56;103102.53;;;3.86;76.64
71716;BME280;59568;52.128;5.434;2023-05-03T01:51:22;103106.28;;;3.84;76.61
71716;BME280;59568;52.128;5.434;2023-05-03T01:53:49;103109.06;;;3.82;76.77
71716;BME280;59568;52.128;5.434;2023-05-03T01:56:15;103107.66;;;3.79;76.76
71716;BME280;59568;52.128;5.434;2023-05-03T01:58:42;103108.66;;;3.78;77.00
71716;BME280;59568;52.128;5.434;2023-05-03T02:01:09;103106.25;;;3.77;76.65
71716;BME280;59568;52.128;5.434;2023-05-03T02:03:35;103104.00;;;3.74;76.60
71716;BME280;59568;52.128;5.434;2023-05-03T02:06:02;103105.97;;;3.72;76.54
71716;BME280;59568;52.128;5.434;2023-05-03T02:08:28;103101.19;;;3.69;77.14
71716;BME280;59568;52.128;5.434;2023-05-03T02:10:55;103098.78;;;3.67;77.13
71716;BME280;59568;52.128;5.434;2023-05-03T02:13:21;103099.75;;;3.66;77.16
71716;BME280;59568;52.128;5.434;2023-05-03T02:15:48;103099.13;;;3.64;76.83
71716;BME280;59568;52.128;5.434;2023-05-03T02:18:14;103098.72;;;3.60;77.39
71716;BME280;59568;52.128;5.434;2023-05-03T02:20:45;103089.34;;;3.59;77.30
71716;BME280;59568;52.128;5.434;2023-05-03T02:23:12;103085.16;;;3.58;77.02
71716;BME280;59568;52.128;5.434;2023-05-03T02:25:39;103083.94;;;3.54;77.09
71716;BME280;59568;52.128;5.434;2023-05-03T02:28:06;103078.94;;;3.53;77.06
71716;BME280;59568;52.128;5.434;2023-05-03T02:30:33;103082.69;;;3.50;77.63
71716;BME280;59568;52.128;5.434;2023-05-03T02:33:00;103077.06;;;3.47;77.75
71716;BME280;59568;52.128;5.434;2023-05-03T02:35:27;103085.19;;;3.44;77.50
71716;BME280;59568;52.128;5.434;2023-05-03T02:37:54;103073.78;;;3.38;77.40
71716;BME280;59568;52.128;5.434;2023-05-03T02:40:21;103071.56;;;3.35;77.53
71716;BME280;59568;52.128;5.434;2023-05-03T02:42:47;103074.34;;;3.33;78.48
71716;BME280;59568;52.128;5.434;2023-05-03T02:45:14;103063.56;;;3.30;78.65
71716;BME280;59568;52.128;5.434;2023-05-03T02:47:40;103063.56;;;3.30;78.30
71716;BME280;59568;52.128;5.434;2023-05-03T02:50:07;103064.53;;;3.29;78.34
71716;BME280;59568;52.128;5.434;2023-05-03T02:52:34;103061.50;;;3.25;78.13
71716;BME280;59568;52.128;5.434;2023-05-03T02:55:00;103055.09;;;3.21;78.41
71716;BME280;59568;52.128;5.434;2023-05-03T02:57:27;103060.81;;;3.16;78.54
71716;BME280;59568;52.128;5.434;2023-05-03T02:59:54;103060.38;;;3.13;78.39
71716;BME280;59568;52.128;5.434;2023-05-03T03:02:20;103060.56;;;3.11;78.69
71716;BME280;59568;52.128;5.434;2023-05-03T03:04:47;103061.91;;;3.07;78.65
71716;BME280;59568;52.128;5.434;2023-05-03T03:07:14;103070.03;;;3.04;78.16
71716;BME280;59568;52.128;5.434;2023-05-03T03:09:40;103068.16;;;2.98;78.41
71716;BME280;59568;52.128;5.434;2023-05-03T03:12:07;103072.06;;;2.94;78.84
71716;BME280;59568;52.128;5.434;2023-05-03T03:14:33;103069.66;;;2.92;78.55
71716;BME280;59568;52.128;5.434;2023-05-03T03:17:00;103074.38;;;2.89;78.83
71716;BME280;59568;52.128;5.434;2023-05-03T03:19:28;103079.25;;;2.84;78.71
71716;BME280;59568;52.128;5.434;2023-05-03T03:21:55;103074.63;;;2.79;78.85
71716;BME280;59568;52.128;5.434;2023-05-03T03:24:21;103075.97;;;2.75;79.01
71716;BME280;59568;52.128;5.434;2023-05-03T03:26:48;103077.31;;;2.71;78.88
71716;BME280;59568;52.128;5.434;2023-05-03T03:29:14;103088.16;;;2.66;79.33
71716;BME280;59568;52.128;5.434;2023-05-03T03:31:41;103077.06;;;2.66;79.04
71716;BME280;59568;52.128;5.434;2023-05-03T03:34:08;103071.44;;;2.62;78.70
71716;BME280;59568;52.128;5.434;2023-05-03T03:36:34;103081.47;;;2.57;78.60
71716;BME280;59568;52.128;5.434;2023-05-03T03:39:03;103077.81;;;2.51;78.43
71716;BME280;59568;52.128;5.434;2023-05-03T03:41:31;103079.75;;;2.49;78.83
71716;BME280;59568;52.128;5.434;2023-05-03T03:43:58;103079.97;;;2.48;78.68
71716;BME280;59568;52.128;5.434;2023-05-03T03:46:25;103082.88;;;2.45;78.84
71716;BME280;59568;52.128;5.434;2023-05-03T03:48:51;103082.88;;;2.45;79.15
71716;BME280;59568;52.128;5.434;2023-05-03T03:51:18;103090.78;;;2.43;79.69
71716;BME280;59568;52.128;5.434;2023-05-03T03:53:44;103084.81;;;2.43;79.99
71716;BME280;59568;52.128;5.434;2023-05-03T03:56:11;103091.59;;;2.44;80.32
71716;BME280;59568;52.128;5.434;2023-05-03T03:58:37;103095.16;;;2.43;80.76
71716;BME280;59568;52.128;5.434;2023-05-03T04:01:04;103097.41;;;2.46;80.55
71716;BME280;59568;52.128;5.434;2023-05-03T04:03:31;103094.00;;;2.45;80.20
71716;BME280;59568;52.128;5.434;2023-05-03T04:05:58;103102.56;;;2.46;79.90
71716;BME280;59568;52.128;5.434;2023-05-03T04:08:25;103096.41;;;2.47;80.14
71716;BME280;59568;52.128;5.434;2023-05-03T04:10:52;103089.47;;;2.47;80.08
71716;BME280;59568;52.128;5.434;2023-05-03T04:13:18;103091.25;;;2.47;80.21
71716;BME280;59568;52.128;5.434;2023-05-03T04:15:45;103090.28;;;2.48;80.13
71716;BME280;59568;52.128;5.434;2023-05-03T04:18:11;103089.28;;;2.49;79.72
71716;BME280;59568;52.128;5.434;2023-05-03T04:20:38;103093.28;;;2.51;80.26
71716;BME280;59568;52.128;5.434;2023-05-03T04:23:04;103099.09;;;2.53;80.21
71716;BME280;59568;52.128;5.434;2023-05-03T04:25:31;103110.66;;;2.57;80.29
71716;BME280;59568;52.128;5.434;2023-05-03T04:27:57;103102.75;;;2.59;80.14
71716;BME280;59568;52.128;5.434;2023-05-03T04:30:24;103110.16;;;2.62;80.38
71716;BME280;59568;52.128;5.434;2023-05-03T04:32:51;103121.72;;;2.66;80.22
71716;BME280;59568;52.128;5.434;2023-05-03T04:35:20;103126.19;;;2.72;80.16
71716;BME280;59568;52.128;5.434;2023-05-03T04:37:47;103129.03;;;2.77;80.19
71716;BME280;59568;52.128;5.434;2023-05-03T04:40:13;103130.72;;;2.85;80.33
71716;BME280;59568;52.128;5.434;2023-05-03T04:42:41;103128.59;;;2.89;80.17
71716;BME280;59568;52.128;5.434;2023-05-03T04:45:09;103135.31;;;2.98;79.18
71716;BME280;59568;52.128;5.434;2023-05-03T04:47:36;103139.75;;;3.04;79.37
71716;BME280;59568;52.128;5.434;2023-05-03T04:50:03;103143.22;;;3.11;79.27
71716;BME280;59568;52.128;5.434;2023-05-03T04:52:29;103148.28;;;3.19;79.56
71716;BME280;59568;52.128;5.434;2023-05-03T04:54:57;103141.31;;;3.65;81.37
71716;BME280;59568;52.128;5.434;2023-05-03T04:57:24;103143.38;;;4.84;80.23
71716;BME280;59568;52.128;5.434;2023-05-03T04:59:51;103149.59;;;5.92;77.85
71716;BME280;59568;52.128;5.434;2023-05-03T05:02:19;103141.50;;;6.62;75.94
71716;BME280;59568;52.128;5.434;2023-05-03T05:04:46;103145.19;;;7.13;72.74
71716;BME280;59568;52.128;5.434;2023-05-03T05:07:13;103133.63;;;6.95;70.68
71716;BME280;59568;52.128;5.434;2023-05-03T05:09:39;103146.59;;;7.02;71.69
71716;BME280;59568;52.128;5.434;2023-05-03T05:12:06;103138.66;;;7.42;71.34
71716;BME280;59568;52.128;5.434;2023-05-03T05:14:33;103143.19;;;8.49;70.42
71716;BME280;59568;52.128;5.434;2023-05-03T05:16:59;103148.59;;;9.09;67.37
71716;BME280;59568;52.128;5.434;2023-05-03T05:19:26;103140.47;;;9.17;66.77
71716;BME280;59568;52.128;5.434;2023-05-03T05:21:52;103144.78;;;10.03;66.06
71716;BME280;59568;52.128;5.434;2023-05-03T05:24:19;103149.69;;;11.34;63.43
71716;BME280;59568;52.128;5.434;2023-05-03T05:26:46;103147.38;;;12.12;59.55
71716;BME280;59568;52.128;5.434;2023-05-03T05:29:13;103149.44;;;12.44;57.15
71716;BME280;59568;52.128;5.434;2023-05-03T05:31:39;103153.75;;;12.72;55.70
71716;BME280;59568;52.128;5.434;2023-05-03T05:34:06;103155.00;;;12.69;54.89
71716;BME280;59568;52.128;5.434;2023-05-03T05:36:33;103153.25;;;13.41;54.82
71716;BME280;59568;52.128;5.434;2023-05-03T05:38:59;103152.66;;;13.93;52.02
71716;BME280;59568;52.128;5.434;2023-05-03T05:41:26;103145.75;;;14.62;52.34
71716;BME280;59568;52.128;5.434;2023-05-03T05:43:53;103153.31;;;15.11;49.70
71716;BME280;59568;52.128;5.434;2023-05-03T05:46:19;103152.38;;;14.70;49.10
71716;BME280;59568;52.128;5.434;2023-05-03T05:48:46;103152.16;;;14.87;48.97
71716;BME280;59568;52.128;5.434;2023-05-03T05:51:13;103151.47;;;15.12;47.54
71716;BME280;59568;52.128;5.434;2023-05-03T05:53:40;103150.91;;;15.00;47.66
71716;BME280;59568;52.128;5.434;2023-05-03T05:56:06;103142.00;;;15.21;47.03
71716;BME280;59568;52.128;5.434;2023-05-03T05:58:35;103149.94;;;15.36;46.74
71716;BME280;59568;52.128;5.434;2023-05-03T06:01:03;103154.72;;;15.50;46.13
71716;BME280;59568;52.128;5.434;2023-05-03T06:03:32;103161.84;;;15.54;46.11
71716;BME280;59568;52.128;5.434;2023-05-03T06:05:58;103159.50;;;15.78;45.46
71716;BME280;59568;52.128;5.434;2023-05-03T06:08:25;103153.44;;;16.14;44.81
71716;BME280;59568;52.128;5.434;2023-05-03T06:10:52;103158.16;;;16.22;44.32
71716;BME280;59568;52.128;5.434;2023-05-03T06:13:18;103162.91;;;16.00;44.35
71716;BME280;59568;52.128;5.434;2023-05-03T06:15:45;103160.81;;;15.96;44.58
71716;BME280;59568;52.128;5.434;2023-05-03T06:18:11;103165.03;;;16.08;45.10
71716;BME280;59568;52.128;5.434;2023-05-03T06:20:38;103161.56;;;15.71;43.90
71716;BME280;59568;52.128;5.434;2023-05-03T06:23:05;103162.31;;;15.26;44.77
71716;BME280;59568;52.128;5.434;2023-05-03T06:25:31;103158.84;;;15.15;44.90
71716;BME280;59568;52.128;5.434;2023-05-03T06:27:58;103151.31;;;15.49;45.04
71716;BME280;59568;52.128;5.434;2023-05-03T06:30:25;103157.88;;;15.62;44.86
71716;BME280;59568;52.128;5.434;2023-05-03T06:32:54;103154.19;;;16.09;45.46
71716;BME280;59568;52.128;5.434;2023-05-03T06:35:20;103152.38;;;16.00;44.02
71716;BME280;59568;52.128;5.434;2023-05-03T06:37:47;103144.47;;;15.94;44.53
71716;BME280;59568;52.128;5.434;2023-05-03T06:40:14;103151.22;;;15.13;44.79
71716;BME280;59568;52.128;5.434;2023-05-03T06:42:41;103139.41;;;14.58;46.67
71716;BME280;59568;52.128;5.434;2023-05-03T06:45:08;103144.91;;;15.09;47.04
71716;BME280;59568;52.128;5.434;2023-05-03T06:47:35;103143.38;;;15.65;46.38
71716;BME280;59568;52.128;5.434;2023-05-03T06:50:02;103143.16;;;15.76;45.13
71716;BME280;59568;52.128;5.434;2023-05-03T06:52:30;103145.81;;;15.82;45.40
71716;BME280;59568;52.128;5.434;2023-05-03T06:54:56;103150.22;;;16.27;44.45
71716;BME280;59568;52.128;5.434;2023-05-03T06:57:23;103143.84;;;16.49;43.80
71716;BME280;59568;52.128;5.434;2023-05-03T06:59:53;103142.56;;;16.26;43.15
71716;BME280;59568;52.128;5.434;2023-05-03T07:02:19;103141.81;;;16.00;43.26
71716;BME280;59568;52.128;5.434;2023-05-03T07:04:47;103140.50;;;16.07;44.03
71716;BME280;59568;52.128;5.434;2023-05-03T07:07:13;103136.84;;;15.83;44.25
71716;BME280;59568;52.128;5.434;2023-05-03T07:09:41;103138.69;;;15.92;44.02
71716;BME280;59568;52.128;5.434;2023-05-03T07:12:09;103144.69;;;15.42;44.76
71716;BME280;59568;52.128;5.434;2023-05-03T07:14:37;103132.09;;;14.70;45.37
71716;BME280;59568;52.128;5.434;2023-05-03T07:17:05;103121.91;;;14.36;46.13
71716;BME280;59568;52.128;5.434;2023-05-03T07:19:31;103133.31;;;14.10;47.14
71716;BME280;59568;52.128;5.434;2023-05-03T07:21:58;103130.06;;;13.97;48.48
71716;BME280;59568;52.128;5.434;2023-05-03T07:24:24;103128.09;;;13.77;48.38
71716;BME280;59568;52.128;5.434;2023-05-03T07:26:52;103133.63;;;13.49;49.76
71716;BME280;59568;52.128;5.434;2023-05-03T07:29:20;103120.28;;;13.06;50.25
71716;BME280;59568;52.128;5.434;2023-05-03T07:31:46;103114.78;;;13.08;51.39
71716;BME280;59568;52.128;5.434;2023-05-03T07:34:13;103114.44;;;12.99;51.29
71716;BME280;59568;52.128;5.434;2023-05-03T07:36:40;103109.63;;;12.69;51.33
71716;BME280;59568;52.128;5.434;2023-05-03T07:39:06;103105.22;;;12.52;51.97
71716;BME280;59568;52.128;5.434;2023-05-03T07:41:34;103110.59;;;12.63;52.99
71716;BME280;59568;52.128;5.434;2023-05-03T07:44:00;103107.22;;;12.45;51.58
71716;BME280;59568;52.128;5.434;2023-05-03T07:46:27;103098.34;;;12.29;51.96
71716;BME280;59568;52.128;5.434;2023-05-03T07:48:53;103098.50;;;12.23;50.88
71716;BME280;59568;52.128;5.434;2023-05-03T07:51:20;103091.16;;;12.03;53.58
71716;BME280;59568;52.128;5.434;2023-05-03T07:53:47;103094.72;;;12.13;52.44
71716;BME280;59568;52.128;5.434;2023-05-03T07:56:13;103088.22;;;12.16;53.49
71716;BME280;59568;52.128;5.434;2023-05-03T07:58:40;103093.50;;;12.38;53.45
71716;BME280;59568;52.128;5.434;2023-05-03T08:01:10;103099.06;;;12.42;53.41
71716;BME280;59568;52.128;5.434;2023-05-03T08:03:37;103096.69;;;12.62;52.19
71716;BME280;59568;52.128;5.434;2023-05-03T08:06:04;103089.50;;;12.74;52.54
71716;BME280;59568;52.128;5.434;2023-05-03T08:08:31;103090.09;;;12.82;50.94
71716;BME280;59568;52.128;5.434;2023-05-03T08:10:59;103088.88;;;12.89;52.83
71716;BME280;59568;52.128;5.434;2023-05-03T08:13:25;103082.03;;;13.10;52.60
71716;BME280;59568;52.128;5.434;2023-05-03T08:15:52;103090.91;;;13.31;52.26
71716;BME280;59568;52.128;5.434;2023-05-03T08:18:19;103092.53;;;13.10;51.64
71716;BME280;59568;52.128;5.434;2023-05-03T08:20:48;103079.66;;;13.36;52.71
71716;BME280;59568;52.128;5.434;2023-05-03T08:23:15;103086.44;;;13.32;50.56
71716;BME280;59568;52.128;5.434;2023-05-03T08:25:44;103076.63;;;13.49;52.36
71716;BME280;59568;52.128;5.434;2023-05-03T08:28:11;103072.94;;;13.83;52.03
71716;BME280;59568;52.128;5.434;2023-05-03T08:30:38;103070.94;;;13.95;52.50
71716;BME280;59568;52.128;5.434;2023-05-03T08:33:04;103057.56;;;14.02;50.64
71716;BME280;59568;52.128;5.434;2023-05-03T08:35:31;103056.97;;;13.89;50.53
71716;BME280;59568;52.128;5.434;2023-05-03T08:37:58;103056.78;;;13.64;49.46
71716;BME280;59568;52.128;5.434;2023-05-03T08:40:26;103052.44;;;13.47;48.24
71716;BME280;59568;52.128;5.434;2023-05-03T08:42:54;103053.66;;;13.34;49.85
71716;BME280;59568;52.128;5.434;2023-05-03T08:45:24;103057.78;;;13.57;50.17
71716;BME280;59568;52.128;5.434;2023-05-03T08:47:53;103067.25;;;13.58;50.56
71716;BME280;59568;52.128;5.434;2023-05-03T08:50:21;103069.78;;;13.81;50.99
71716;BME280;59568;52.128;5.434;2023-05-03T08:52:49;103070.47;;;14.08;49.48
71716;BME280;59568;52.128;5.434;2023-05-03T08:55:16;103078.03;;;13.94;49.61
71716;BME280;59568;52.128;5.434;2023-05-03T08:57:43;103082.34;;;14.11;49.73
71716;BME280;59568;52.128;5.434;2023-05-03T09:00:10;103078.00;;;14.42;49.84
71716;BME280;59568;52.128;5.434;2023-05-03T09:02:39;103079.78;;;14.26;47.31
71716;BME280;59568;52.128;5.434;2023-05-03T09:08:00;103085.22;;;14.57;49.29
71716;BME280;59568;52.128;5.434;2023-05-03T09:10:28;103082.13;;;14.75;49.53
71716;BME280;59568;52.128;5.434;2023-05-03T09:13:00;103084.25;;;14.84;49.01
71716;BME280;59568;52.128;5.434;2023-05-03T09:15:28;103084.25;;;14.84;47.87
71716;BME280;59568;52.128;5.434;2023-05-03T09:18:10;103083.16;;;14.74;47.23
71716;BME280;59568;52.128;5.434;2023-05-03T09:20:38;103086.38;;;14.92;46.67
71716;BME280;59568;52.128;5.434;2023-05-03T09:23:06;103096.06;;;14.71;46.84
71716;BME280;59568;52.128;5.434;2023-05-03T09:25:47;103089.41;;;14.53;47.78
71716;BME280;59568;52.128;5.434;2023-05-03T09:28:15;103091.63;;;14.82;47.54
71716;BME280;59568;52.128;5.434;2023-05-03T09:30:43;103082.91;;;14.76;48.66
71716;BME280;59568;52.128;5.434;2023-05-03T09:33:10;103073.25;;;15.12;48.55
71716;BME280;59568;52.128;5.434;2023-05-03T09:35:37;103080.66;;;15.36;48.14
71716;BME280;59568;52.128;5.434;2023-05-03T09:38:04;103086.72;;;15.47;47.31
71716;BME280;59568;52.128;5.434;2023-05-03T09:40:31;103096.47;;;15.31;46.51
71716;BME280;59568;52.128;5.434;2023-05-03T09:43:08;103098.03;;;15.27;47.46
71716;BME280;59568;52.128;5.434;2023-05-03T09:45:37;103094.63;;;15.42;46.70
71716;BME280;59568;52.128;5.434;2023-05-03T09:48:05;103093.31;;;15.44;45.27
71716;BME280;59568;52.128;5.434;2023-05-03T09:50:34;103085.13;;;15.71;48.30
71716;BME280;59568;52.128;5.434;2023-05-03T09:53:05;103090.69;;;16.06;45.91
71716;BME280;59568;52.128;5.434;2023-05-03T09:55:33;103095.69;;;15.56;45.27
71716;BME280;59568;52.128;5.434;2023-05-03T09:58:00;103075.94;;;15.53;47.15
71716;BME280;59568;52.128;5.434;2023-05-03T10:00:30;103074.34;;;15.88;45.78
71716;BME280;59568;52.128;5.434;2023-05-03T10:02:57;103081.97;;;15.95;45.98
71716;BME280;59568;52.128;5.434;2023-05-03T10:05:30;103082.22;;;16.09;46.56
71716;BME280;59568;52.128;5.434;2023-05-03T10:07:59;103082.72;;;16.11;45.88
71716;BME280;59568;52.128;5.434;2023-05-03T10:10:30;103070.00;;;16.33;47.74
71716;BME280;59568;52.128;5.434;2023-05-03T10:12:59;103066.78;;;16.47;45.16
71716;BME280;59568;52.128;5.434;2023-05-03T10:15:28;103063.63;;;16.45;46.99
71716;BME280;59568;52.128;5.434;2023-05-03T10:17:56;103071.50;;;16.60;47.09
71716;BME280;59568;52.128;5.434;2023-05-03T10:20:33;103072.63;;;16.38;45.56
71716;BME280;59568;52.128;5.434;2023-05-03T10:25:31;103061.88;;;16.80;45.69
71716;BME280;59568;52.128;5.434;2023-05-03T10:28:02;103056.06;;;16.77;44.92
71716;BME280;59568;52.128;5.434;2023-05-03T10:30:34;103050.97;;;16.42;43.06
71716;BME280;59568;52.128;5.434;2023-05-03T10:33:28;103052.16;;;16.10;45.05
71716;BME280;59568;52.128;5.434;2023-05-03T10:35:55;103049.41;;;16.35;46.02
71716;BME280;59568;52.128;5.434;2023-05-03T10:38:23;103056.44;;;16.61;44.99
71716;BME280;59568;52.128;5.434;2023-05-03T10:40:51;103044.28;;;16.65;43.50
71716;BME280;59568;52.128;5.434;2023-05-03T10:46:04;103040.53;;;16.71;44.08
71716;BME280;59568;52.128;5.434;2023-05-03T10:48:32;103051.06;;;16.86;44.88
71716;BME280;59568;52.128;5.434;2023-05-03T10:51:36;103057.31;;;16.95;44.58
71716;BME280;59568;52.128;5.434;2023-05-03T10:54:04;103057.25;;;17.06;43.21
71716;BME280;59568;52.128;5.434;2023-05-03T10:56:30;103052.56;;;17.32;44.51
71716;BME280;59568;52.128;5.434;2023-05-03T10:58:57;103046.47;;;17.36;45.56
71716;BME280;59568;52.128;5.434;2023-05-03T11:01:25;103052.50;;;17.66;43.79
71716;BME280;59568;52.128;5.434;2023-05-03T11:04:06;103038.44;;;17.47;43.98
71716;BME280;59568;52.128;5.434;2023-05-03T11:06:36;103038.78;;;17.93;43.22
71716;BME280;59568;52.128;5.434;2023-05-03T11:09:06;103030.59;;;17.95;39.78
71716;BME280;59568;52.128;5.434;2023-05-03T11:11:35;103025.94;;;17.82;42.69
71716;BME280;59568;52.128;5.434;2023-05-03T11:14:01;103017.00;;;18.02;42.97
71716;BME280;59568;52.128;5.434;2023-05-03T11:16:29;103015.50;;;17.95;40.39
71716;BME280;59568;52.128;5.434;2023-05-03T11:18:58;103014.44;;;17.67;41.72
71716;BME280;59568;52.128;5.434;2023-05-03T11:21:25;103016.16;;;17.24;43.00
71716;BME280;59568;52.128;5.434;2023-05-03T11:23:51;103007.09;;;17.35;40.80
71716;BME280;59568;52.128;5.434;2023-05-03T11:26:18;102996.72;;;17.14;42.21
71716;BME280;59568;52.128;5.434;2023-05-03T11:28:49;103000.19;;;17.39;43.60
71716;BME280;59568;52.128;5.434;2023-05-03T11:31:15;102993.84;;;17.64;44.53
71716;BME280;59568;52.128;5.434;2023-05-03T11:33:42;102989.41;;;18.08;44.18
71716;BME280;59568;52.128;5.434;2023-05-03T11:36:10;102995.56;;;17.79;40.80
71716;BME280;59568;52.128;5.434;2023-05-03T11:38:38;102996.41;;;17.45;39.00
71716;BME280;59568;52.128;5.434;2023-05-03T11:41:13;102992.06;;;17.60;43.06
71716;BME280;59568;52.128;5.434;2023-05-03T11:43:45;102985.16;;;18.31;43.25
71716;BME280;59568;52.128;5.434;2023-05-03T11:46:24;102980.66;;;18.31;39.03
71716;BME280;59568;52.128;5.434;2023-05-03T11:48:52;102988.13;;;18.05;39.47
71716;BME280;59568;52.128;5.434;2023-05-03T11:51:22;102978.50;;;17.90;40.30
71716;BME280;59568;52.128;5.434;2023-05-03T11:53:49;102978.09;;;18.02;41.17
71716;BME280;59568;52.128;5.434;2023-05-03T11:56:16;102986.19;;;18.11;40.62
71716;BME280;59568;52.128;5.434;2023-05-03T11:58:53;102973.72;;;18.35;41.03
71716;BME280;59568;52.128;5.434;2023-05-03T12:01:27;102972.03;;;18.02;39.66
71716;BME280;59568;52.128;5.434;2023-05-03T12:03:56;102974.56;;;17.64;38.29
71716;BME280;59568;52.128;5.434;2023-05-03T12:06:25;102970.56;;;17.66;41.34
71716;BME280;59568;52.128;5.434;2023-05-03T12:08:54;102968.09;;;17.99;38.96
71716;BME280;59568;52.128;5.434;2023-05-03T12:11:22;102965.97;;;18.01;39.15
71716;BME280;59568;52.128;5.434;2023-05-03T12:14:00;102955.03;;;18.08;39.09
71716;BME280;59568;52.128;5.434;2023-05-03T12:16:45;102953.69;;;17.86;41.43
71716;BME280;59568;52.128;5.434;2023-05-03T12:19:28;102947.25;;;18.35;42.17
71716;BME280;59568;52.128;5.434;2023-05-03T12:21:59;102942.09;;;18.77;40.88
71716;BME280;59568;52.128;5.434;2023-05-03T12:24:29;102940.84;;;18.74;37.99
71716;BME280;59568;52.128;5.434;2023-05-03T12:26:59;102937.78;;;18.67;41.14
71716;BME280;59568;52.128;5.434;2023-05-03T12:29:28;102935.91;;;18.68;38.61
71716;BME280;59568;52.128;5.434;2023-05-03T12:32:00;102936.50;;;18.46;37.95
71716;BME280;59568;52.128;5.434;2023-05-03T12:34:29;102931.44;;;18.30;41.84
71716;BME280;59568;52.128;5.434;2023-05-03T12:37:01;102930.72;;;18.76;41.84
71716;BME280;59568;52.128;5.434;2023-05-03T12:39:30;102926.00;;;18.92;42.20
71716;BME280;59568;52.128;5.434;2023-05-03T12:41:58;102911.47;;;18.90;39.92
71716;BME280;59568;52.128;5.434;2023-05-03T12:44:28;102918.34;;;18.91;38.67
71716;BME280;59568;52.128;5.434;2023-05-03T12:46:54;102916.16;;;18.60;37.86
71716;BME280;59568;52.128;5.434;2023-05-03T12:49:26;102905.19;;;18.34;39.70
71716;BME280;59568;52.128;5.434;2023-05-03T12:51:53;102900.94;;;18.52;37.72
71716;BME280;59568;52.128;5.434;2023-05-03T12:54:45;102889.91;;;18.64;39.29
71716;BME280;59568;52.128;5.434;2023-05-03T12:57:29;102892.59;;;18.77;38.54
71716;BME280;59568;52.128;5.434;2023-05-03T12:59:56;102894.03;;;18.70;39.54
71716;BME280;59568;52.128;5.434;2023-05-03T13:02:29;102893.72;;;18.90;37.99
71716;BME280;59568;52.128;5.434;2023-05-03T13:04:58;102888.84;;;18.79;41.14
71716;BME280;59568;52.128;5.434;2023-05-03T13:07:28;102887.56;;;19.23;38.64
71716;BME280;59568;52.128;5.434;2023-05-03T13:09:58;102885.41;;;19.11;39.68
71716;BME280;59568;52.128;5.434;2023-05-03T13:12:28;102871.38;;;19.38;37.52